首页
METAR-TAF:

METAR-TAF

机场 :

多佛, 特拉华州, 美国

纬度: 39-08N, 经度: 075-28W, 海拔: 9米

当前天气观测

该预报发布于20分钟前的05:56 UTC
风速17节,风向西转西北,有时为23节阵风
温度 4°C
湿度 87%
气压 1021 hPa
能見度: 16.1公里
少量云层高于1800英尺
散云层高于2500英尺
多云层高于3400英尺
多云层高于6500英尺
阴天层高于7500英尺
小雨

METAR: KDOV 110556Z AUTO 30017G23KT 10SM -RA FEW018 SCT025 BKN034 BKN065 OVC075 04/02 A3015 RMK AO2 RAE17DZB17E21DZB37E39RAB39 SLPNO P0000 60009 T00400015 10120 20040 52020 $

时间: 01:16 (06:16 UTC)

预报

该预报发布于1小时和31分钟前的04:45 UTC
预报有效从11日的 04点(UTC)到 12日的 06点(UTC)
风速12节,风向西北,有时为18节阵风
能見度: 8000
多云层高于1200英尺
阴天层高于3000英尺
小雨
短暂存在
从 11日的 07点(UTC)到 11日的 09点(UTC)
能見度: 8000
多云层高于600英尺
小雨, 雪
成为
从 11日的 08点(UTC)到 11日的 09点(UTC)
风速10节,风向北转西北,有时为15节阵风
能見度: 4800
阴天层高于600英尺
小雪
成为
从 11日的 13点(UTC)到 11日的 14点(UTC)
风速9节,风向北转西北
能见度10公里或以上
多云层高于1500英尺
成为
从 11日的 15点(UTC)到 11日的 16点(UTC)
风速10节,风向西转西北,有时为15节阵风
能见度10公里或以上
散云层高于3000英尺
成为
从 11日的 21点(UTC)到 11日的 22点(UTC)
风速9节,风向西转西北
能见度10公里或以上
天空无云

TAF: KDOV 110445Z 1104/1206 32012G18KT 8000 -RA BKN012 OVC030 QNH3008INS TEMPO 1107/1109 8000 -RASN BKN006 650103 BECMG 1108/1109 34010G15KT 4800 -SN OVC006 650069 QNH3020INS BECMG 1113/1114 34009KT 9999 NSW BKN015 QNH3028INS BECMG 1115/1116 30010G15KT 9999 SCT030 QNH3035INS BECMG 1121/1122 30009KT 9999 SKC QNH3039INS TX05/1104Z TNM01/1200Z

超过4000个机场的气象观测和天气预报(METAR&TAF报告)。

可查询的气象台以黄色和红色小点在地图上表示。

将鼠标移到小点上方,可查看气象台名称。

然后点击查看天气观测和预报。

如需切换地图:点击带黑十字的绿色按钮放大地图;点击带横线的绿色按钮缩小地图;或者点击绿色箭头查看邻近地区的地图。


METAR-TAF: